Time;durP1;ratioP1;P1;durP2;ratioP2;P2;SDS_P1;SDS_P2;PMS_P1;PMS_P2;Temp;Humidity;BMP_temperature;BMP_pressure;BME280_temperature;BME280_humidity;BME280_pressure;Samples;Min_cycle;Max_cycle;Signal;HPM_P1;HPM_P2
2024/01/12 00:02:18;;;;;;;23.13;13.60;;;;;;;;;;5115306;28;20317;-85
2024/01/12 00:04:45;;;;;;;187.13;66.37;;;;;;;;;;5116053;28;20240;-85
2024/01/12 00:07:12;;;;;;;60.43;30.23;;;;;;;;;;5115792;28;20284;-86
2024/01/12 00:09:40;;;;;;;22.87;16.17;;;;;;;;;;5115676;28;20291;-85
2024/01/12 00:12:07;;;;;;;41.17;27.83;;;;;;;;;;5115483;28;20232;-84
2024/01/12 00:14:36;;;;;;;22.97;15.87;;;;;;;;;;5115738;28;20644;-85
2024/01/12 00:17:03;;;;;;;36.00;23.93;;;;;;;;;;5115569;28;20198;-85
2024/01/12 00:19:30;;;;;;;16.53;11.03;;;;;;;;;;5114393;28;20248;-85
2024/01/12 00:21:58;;;;;;;16.77;10.23;;;;;;;;;;5115241;28;20314;-85
2024/01/12 00:24:25;;;;;;;15.37;10.40;;;;;;;;;;5115240;28;20290;-85
2024/01/12 00:26:52;;;;;;;17.47;10.47;;;;;;;;;;5115673;28;20201;-85
2024/01/12 00:29:20;;;;;;;16.03;10.13;;;;;;;;;;5115697;27;20636;-85
2024/01/12 00:31:48;;;;;;;15.67;10.23;;;;;;;;;;5115404;28;20753;-84
2024/01/12 00:34:15;;;;;;;15.70;10.53;;;;;;;;;;5115493;28;20215;-86
2024/01/12 00:36:43;;;;;;;15.67;10.57;;;;;;;;;;5104373;28;20293;-85
2024/01/12 00:39:10;;;;;;;15.90;10.30;;;;;;;;;;5094804;28;20195;-85
2024/01/12 00:41:37;;;;;;;16.03;10.83;;;;;;;;;;5094803;28;20601;-86
2024/01/12 00:44:06;;;;;;;20.23;11.63;;;;;;;;;;5094739;28;20747;-85
2024/01/12 00:46:34;;;;;;;17.60;11.67;;;;;;;;;;5094737;28;20236;-84
2024/01/12 00:49:02;;;;;;;17.17;11.30;;;;;;;;;;5094563;28;20649;-85
2024/01/12 00:51:30;;;;;;;20.00;12.20;;;;;;;;;;5094593;28;20270;-84
2024/01/12 00:53:57;;;;;;;21.83;11.80;;;;;;;;;;5094604;28;20293;-85
2024/01/12 00:56:24;;;;;;;16.00;11.33;;;;;;;;;;5094611;28;20674;-82
2024/01/12 00:58:53;;;;;;;20.50;12.57;;;;;;;;;;5094450;28;20196;-83
2024/01/12 01:01:22;;;;;;;19.00;11.93;;;;;;;;;;5093511;28;20225;-85
2024/01/12 01:03:49;;;;;;;20.30;12.43;;;;;;;;;;5095065;28;20199;-85
2024/01/12 01:06:18;;;;;;;20.90;12.50;;;;;;;;;;5094229;28;20281;-85
2024/01/12 01:08:48;;;;;;;22.13;13.70;;;;;;;;;;5094205;28;20224;-84
2024/01/12 01:11:15;;;;;;;18.40;12.03;;;;;;;;;;5094301;28;20374;-85
2024/01/12 01:13:42;;;;;;;18.23;11.03;;;;;;;;;;5094364;28;20785;-84
2024/01/12 01:16:09;;;;;;;18.73;11.20;;;;;;;;;;5094403;28;20688;-85
2024/01/12 01:18:36;;;;;;;19.73;12.07;;;;;;;;;;5094113;28;20204;-85
2024/01/12 01:21:04;;;;;;;19.00;11.63;;;;;;;;;;5093772;28;20300;-85
2024/01/12 01:23:33;;;;;;;20.77;11.63;;;;;;;;;;5094545;28;20208;-84
2024/01/12 01:26:00;;;;;;;17.53;11.70;;;;;;;;;;5094291;28;20673;-85
2024/01/12 01:28:27;;;;;;;16.60;11.13;;;;;;;;;;5092840;28;20633;-85
2024/01/12 01:30:55;;;;;;;17.23;11.17;;;;;;;;;;5093923;28;20200;-85
2024/01/12 01:33:22;;;;;;;16.50;11.33;;;;;;;;;;5093978;28;20204;-86
2024/01/12 01:35:49;;;;;;;17.57;11.47;;;;;;;;;;5096560;28;20287;-84
2024/01/12 01:38:17;;;;;;;17.73;11.03;;;;;;;;;;5114152;28;20284;-84
2024/01/12 01:40:45;;;;;;;15.20;10.40;;;;;;;;;;5114481;28;20197;-85
2024/01/12 01:43:13;;;;;;;18.97;11.30;;;;;;;;;;5113670;28;20232;-84
2024/01/12 01:45:40;;;;;;;18.87;10.97;;;;;;;;;;5114129;27;20329;-84
2024/01/12 01:48:08;;;;;;;18.73;11.23;;;;;;;;;;5113912;28;20231;-84
2024/01/12 01:50:36;;;;;;;18.47;11.10;;;;;;;;;;5113616;28;20207;-85
2024/01/12 01:53:04;;;;;;;15.67;10.20;;;;;;;;;;5114259;28;20721;-85
2024/01/12 01:55:32;;;;;;;15.03;10.40;;;;;;;;;;5114312;28;20628;-85
2024/01/12 01:58:02;;;;;;;14.63;10.10;;;;;;;;;;5113583;28;20229;-85
2024/01/12 02:00:30;;;;;;;15.60;10.17;;;;;;;;;;5113652;28;20204;-84
2024/01/12 02:02:57;;;;;;;15.73;10.23;;;;;;;;;;5113447;28;20304;-85
2024/01/12 02:05:25;;;;;;;21.10;11.23;;;;;;;;;;5113153;28;20203;-83
2024/01/12 02:07:52;;;;;;;17.07;11.30;;;;;;;;;;5113438;28;20231;-85
2024/01/12 02:10:20;;;;;;;15.40;10.43;;;;;;;;;;5112564;28;20233;-85
2024/01/12 02:12:47;;;;;;;14.90;10.00;;;;;;;;;;5113260;28;20711;-84
2024/01/12 02:15:18;;;;;;;16.50;10.87;;;;;;;;;;5112858;28;20220;-85
2024/01/12 02:17:45;;;;;;;17.07;10.00;;;;;;;;;;5113108;28;20204;-85
2024/01/12 02:20:13;;;;;;;16.73;9.80;;;;;;;;;;5112834;28;20221;-84
2024/01/12 02:22:42;;;;;;;16.37;10.27;;;;;;;;;;5113378;28;20730;-84
2024/01/12 02:25:09;;;;;;;15.50;10.10;;;;;;;;;;5113490;28;20242;-85
2024/01/12 02:27:37;;;;;;;15.70;9.83;;;;;;;;;;5113185;28;20201;-85
2024/01/12 02:30:04;;;;;;;14.53;9.83;;;;;;;;;;5113463;28;20232;-84
2024/01/12 02:32:32;;;;;;;15.70;9.53;;;;;;;;;;5100162;28;20294;-84
2024/01/12 02:34:59;;;;;;;16.47;10.03;;;;;;;;;;5108004;28;20224;-85
2024/01/12 02:37:26;;;;;;;14.87;9.33;;;;;;;;;;5113082;28;20620;-85
2024/01/12 02:39:55;;;;;;;14.17;9.37;;;;;;;;;;5113098;28;20304;-85
2024/01/12 02:42:22;;;;;;;16.03;9.17;;;;;;;;;;5113120;28;20404;-85
2024/01/12 02:44:49;;;;;;;15.07;8.73;;;;;;;;;;5113188;28;20196;-85
2024/01/12 02:47:17;;;;;;;16.33;9.60;;;;;;;;;;5112463;28;20880;-85
2024/01/12 02:49:44;;;;;;;13.07;8.53;;;;;;;;;;5112647;28;20283;-85
2024/01/12 02:52:11;;;;;;;14.43;9.00;;;;;;;;;;5113007;28;20206;-85
2024/01/12 02:54:38;;;;;;;11.93;8.83;;;;;;;;;;5112591;28;20198;-84
2024/01/12 02:57:08;;;;;;;13.00;8.70;;;;;;;;;;5112411;28;20289;-85
2024/01/12 02:59:35;;;;;;;11.33;8.10;;;;;;;;;;5112736;28;20193;-84
2024/01/12 03:02:02;;;;;;;12.33;8.60;;;;;;;;;;5111934;28;20748;-85
2024/01/12 03:04:29;;;;;;;14.27;8.07;;;;;;;;;;5112708;28;20197;-84
2024/01/12 03:06:56;;;;;;;13.10;8.63;;;;;;;;;;5112371;28;20289;-84
2024/01/12 03:09:24;;;;;;;12.57;8.50;;;;;;;;;;5112399;28;20228;-85
2024/01/12 03:11:51;;;;;;;12.77;8.20;;;;;;;;;;5112058;28;20244;-85
2024/01/12 03:14:20;;;;;;;12.57;8.53;;;;;;;;;;5112356;28;20292;-84
2024/01/12 03:16:47;;;;;;;14.90;8.40;;;;;;;;;;5111848;28;20296;-85
2024/01/12 03:19:14;;;;;;;14.50;8.47;;;;;;;;;;5112083;28;20247;-84
2024/01/12 03:21:41;;;;;;;12.97;8.13;;;;;;;;;;5112463;28;20286;-85
2024/01/12 03:24:09;;;;;;;12.87;8.20;;;;;;;;;;5112474;28;20225;-85
2024/01/12 03:26:37;;;;;;;12.37;8.00;;;;;;;;;;5112032;28;20323;-84
2024/01/12 03:29:04;;;;;;;11.40;7.63;;;;;;;;;;5112278;28;20193;-84
2024/01/12 03:31:33;;;;;;;11.37;7.20;;;;;;;;;;5111182;28;20231;-85
2024/01/12 03:34:00;;;;;;;10.47;7.13;;;;;;;;;;5112153;28;20264;-85
2024/01/12 03:36:28;;;;;;;11.97;7.80;;;;;;;;;;5111607;28;20656;-85
2024/01/12 03:38:55;;;;;;;10.27;7.40;;;;;;;;;;5111490;28;20211;-86
2024/01/12 03:41:22;;;;;;;11.37;6.43;;;;;;;;;;5111909;28;20291;-84
2024/01/12 03:43:50;;;;;;;11.33;6.57;;;;;;;;;;5099026;28;20352;-85
2024/01/12 03:46:17;;;;;;;10.87;7.03;;;;;;;;;;5111597;28;20203;-84
2024/01/12 03:48:46;;;;;;;9.00;6.47;;;;;;;;;;5111837;28;20758;-84
2024/01/12 03:51:13;;;;;;;11.13;6.13;;;;;;;;;;5112446;28;20189;-86
2024/01/12 03:53:41;;;;;;;9.17;6.40;;;;;;;;;;5112065;28;20284;-84
2024/01/12 03:56:08;;;;;;;10.07;6.73;;;;;;;;;;5111663;28;20240;-85
2024/01/12 03:58:37;;;;;;;8.70;6.20;;;;;;;;;;5112077;28;20304;-84
2024/01/12 04:01:07;;;;;;;9.97;6.03;;;;;;;;;;5111382;28;20213;-84
2024/01/12 04:03:34;;;;;;;10.20;5.67;;;;;;;;;;5111683;28;20236;-86
2024/01/12 04:06:03;;;;;;;9.63;5.33;;;;;;;;;;5111912;28;20244;-85
2024/01/12 04:08:30;;;;;;;8.50;5.07;;;;;;;;;;5111567;28;20688;-84
2024/01/12 04:10:58;;;;;;;7.47;4.70;;;;;;;;;;5111482;28;20295;-84
2024/01/12 04:13:25;;;;;;;6.70;4.63;;;;;;;;;;5111636;28;20315;-84
2024/01/12 04:15:52;;;;;;;5.23;4.03;;;;;;;;;;5111276;28;20627;-85
2024/01/12 04:18:20;;;;;;;6.27;4.43;;;;;;;;;;5111697;28;20284;-85
2024/01/12 04:20:47;;;;;;;6.50;4.60;;;;;;;;;;5111670;28;20696;-84
2024/01/12 04:23:16;;;;;;;6.83;4.60;;;;;;;;;;5110966;28;20225;-84
2024/01/12 04:25:43;;;;;;;5.47;3.73;;;;;;;;;;5111729;28;20207;-83
2024/01/12 04:28:10;;;;;;;7.33;3.93;;;;;;;;;;5111954;28;20232;-85
2024/01/12 04:30:37;;;;;;;5.40;4.00;;;;;;;;;;5110880;28;20252;-85
2024/01/12 04:33:05;;;;;;;5.43;3.80;;;;;;;;;;5111153;28;20636;-85
2024/01/12 04:35:32;;;;;;;5.30;3.77;;;;;;;;;;5111222;28;20284;-84
2024/01/12 04:37:59;;;;;;;4.30;3.30;;;;;;;;;;5114311;28;20585;-84
2024/01/12 04:40:28;;;;;;;5.03;3.40;;;;;;;;;;5115162;28;20193;-84
2024/01/12 04:42:55;;;;;;;5.43;3.60;;;;;;;;;;5113238;28;20217;-83
2024/01/12 04:45:22;;;;;;;4.87;3.50;;;;;;;;;;5115025;28;20293;-84
2024/01/12 04:47:50;;;;;;;5.30;3.43;;;;;;;;;;5114544;28;20225;-84
2024/01/12 04:50:17;;;;;;;4.73;3.50;;;;;;;;;;5114332;28;20280;-83
2024/01/12 04:52:45;;;;;;;4.83;3.17;;;;;;;;;;5114662;28;20203;-84
2024/01/12 04:55:12;;;;;;;4.97;3.13;;;;;;;;;;5114189;28;20201;-84
2024/01/12 04:57:41;;;;;;;5.87;3.57;;;;;;;;;;5114700;28;20197;-84
2024/01/12 05:00:08;;;;;;;5.33;3.30;;;;;;;;;;5114273;28;20662;-84
2024/01/12 05:02:36;;;;;;;6.57;3.33;;;;;;;;;;5114484;28;20313;-85
2024/01/12 05:05:04;;;;;;;5.10;3.30;;;;;;;;;;5114339;28;20198;-85
2024/01/12 05:07:31;;;;;;;5.30;3.20;;;;;;;;;;5114158;28;20201;-84
2024/01/12 05:09:58;;;;;;;4.33;3.10;;;;;;;;;;5114577;28;20285;-85
2024/01/12 05:12:26;;;;;;;4.30;2.90;;;;;;;;;;5113716;28;20316;-84
2024/01/12 05:14:54;;;;;;;4.60;3.20;;;;;;;;;;5114450;28;20280;-84
2024/01/12 05:17:21;;;;;;;4.73;3.10;;;;;;;;;;5114167;28;20245;-84
2024/01/12 05:19:49;;;;;;;4.50;2.93;;;;;;;;;;5114047;27;20280;-84
2024/01/12 05:22:16;;;;;;;4.80;2.90;;;;;;;;;;5113862;28;20221;-84
2024/01/12 05:24:43;;;;;;;4.80;3.40;;;;;;;;;;5114087;28;20293;-84
2024/01/12 05:27:10;;;;;;;23.80;12.60;;;;;;;;;;5112601;28;20284;-84
2024/01/12 05:29:38;;;;;;;7.20;4.67;;;;;;;;;;5114103;28;20615;-83
2024/01/12 05:32:07;;;;;;;7.27;3.93;;;;;;;;;;5113827;28;20226;-84
2024/01/12 05:34:34;;;;;;;5.33;3.67;;;;;;;;;;5113980;28;20206;-84
2024/01/12 05:37:01;;;;;;;4.47;3.50;;;;;;;;;;5113420;28;20281;-84
2024/01/12 05:39:28;;;;;;;6.00;3.67;;;;;;;;;;5113869;28;20193;-84
2024/01/12 05:41:56;;;;;;;5.47;3.50;;;;;;;;;;5113035;28;20601;-83
2024/01/12 05:44:22;;;;;;;5.67;4.10;;;;;;;;;;5113509;28;20258;-84
2024/01/12 05:46:49;;;;;;;6.67;3.83;;;;;;;;;;5114153;28;20587;-83
2024/01/12 05:49:18;;;;;;;7.73;4.07;;;;;;;;;;5113238;28;20725;-84
2024/01/12 05:51:45;;;;;;;7.30;4.50;;;;;;;;;;5113417;28;20197;-83
2024/01/12 05:54:12;;;;;;;7.57;3.90;;;;;;;;;;5113398;28;20194;-84
2024/01/12 05:56:39;;;;;;;8.90;4.03;;;;;;;;;;5112992;28;20289;-84
2024/01/12 05:59:06;;;;;;;7.87;4.20;;;;;;;;;;5113321;28;20289;-84
2024/01/12 06:01:34;;;;;;;7.70;4.03;;;;;;;;;;5113264;27;20559;-83
2024/01/12 06:04:01;;;;;;;6.97;4.03;;;;;;;;;;5112883;28;20317;-85
2024/01/12 06:06:30;;;;;;;6.73;3.60;;;;;;;;;;5113375;28;20221;-82
2024/01/12 06:08:57;;;;;;;6.50;3.70;;;;;;;;;;5112826;28;20207;-86
2024/01/12 06:11:24;;;;;;;4.40;2.60;;;;;;;;;;5114039;28;20676;-88
2024/01/12 06:13:52;;;;;;;4.70;2.93;;;;;;;;;;5114537;28;20597;-89
2024/01/12 06:16:19;;;;;;;9.57;4.97;;;;;;;;;;5114413;28;20198;-88
2024/01/12 06:18:46;;;;;;;20.57;9.60;;;;;;;;;;5114793;28;20238;-89
2024/01/12 06:21:14;;;;;;;26.30;15.77;;;;;;;;;;5114589;28;20628;-87
2024/01/12 06:23:42;;;;;;;91.77;44.30;;;;;;;;;;5114551;28;20233;-86
2024/01/12 06:26:09;;;;;;;33.70;17.27;;;;;;;;;;5114521;27;20226;-89
2024/01/12 06:28:37;;;;;;;80.87;40.40;;;;;;;;;;5114522;28;20233;-89
2024/01/12 06:31:04;;;;;;;12.40;6.77;;;;;;;;;;5114841;28;20288;-89
2024/01/12 06:33:33;;;;;;;11.13;9.03;;;;;;;;;;5114655;28;20212;-89
2024/01/12 06:36:00;;;;;;;86.30;44.37;;;;;;;;;;5114723;28;20319;-90
2024/01/12 06:38:27;;;;;;;36.73;23.87;;;;;;;;;;5114499;28;20286;-90
2024/01/12 06:40:56;;;;;;;10.37;7.43;;;;;;;;;;5113528;28;20199;-88
2024/01/12 06:43:23;;;;;;;6.20;3.73;;;;;;;;;;5108930;27;20318;-87
2024/01/12 06:45:51;;;;;;;8.63;5.93;;;;;;;;;;5113308;28;20205;-86
2024/01/12 06:48:18;;;;;;;7.83;5.80;;;;;;;;;;5095891;28;20233;-88
2024/01/12 06:50:45;;;;;;;7.90;3.93;;;;;;;;;;5114552;28;20187;-90
2024/01/12 06:53:14;;;;;;;5.93;3.40;;;;;;;;;;5114227;28;20199;-87
2024/01/12 06:55:41;;;;;;;6.27;4.07;;;;;;;;;;5113838;28;20281;-89
2024/01/12 06:58:10;;;;;;;10.33;6.20;;;;;;;;;;5113864;28;20663;-88
2024/01/12 07:00:37;;;;;;;6.07;3.90;;;;;;;;;;5113760;28;20614;-89
2024/01/12 07:03:06;;;;;;;12.80;3.80;;;;;;;;;;5113999;28;20322;-88
2024/01/12 07:05:33;;;;;;;7.60;4.27;;;;;;;;;;5114065;28;20221;-88
2024/01/12 07:08:00;;;;;;;6.57;4.30;;;;;;;;;;5114065;28;20194;-89
2024/01/12 07:10:28;;;;;;;5.93;2.90;;;;;;;;;;5114096;28;20202;-89
2024/01/12 07:12:55;;;;;;;8.40;4.20;;;;;;;;;;5113704;28;20890;-89
2024/01/12 07:15:24;;;;;;;4.90;3.60;;;;;;;;;;5114104;28;20192;-89
2024/01/12 07:17:51;;;;;;;5.50;3.33;;;;;;;;;;5113854;28;20247;-88
2024/01/12 07:20:18;;;;;;;8.37;4.30;;;;;;;;;;5114151;28;20283;-89
2024/01/12 07:22:46;;;;;;;7.47;3.67;;;;;;;;;;5113845;28;20207;-89
2024/01/12 07:25:13;;;;;;;6.17;3.37;;;;;;;;;;5113744;28;20308;-90
2024/01/12 07:27:40;;;;;;;5.50;3.00;;;;;;;;;;5114128;28;20650;-89
2024/01/12 07:30:08;;;;;;;6.00;3.40;;;;;;;;;;5113780;28;20202;-88
2024/01/12 07:32:37;;;;;;;5.87;3.77;;;;;;;;;;5113447;28;20231;-89
2024/01/12 07:35:04;;;;;;;5.83;3.67;;;;;;;;;;5114243;28;20257;-90
2024/01/12 07:37:31;;;;;;;6.40;3.63;;;;;;;;;;5114000;28;20637;-89
2024/01/12 07:39:58;;;;;;;6.93;3.50;;;;;;;;;;5114167;28;20215;-89
2024/01/12 07:42:26;;;;;;;6.43;3.73;;;;;;;;;;5114196;28;20198;-90
2024/01/12 07:44:54;;;;;;;4.53;2.97;;;;;;;;;;5113821;28;20661;-89
2024/01/12 07:47:21;;;;;;;6.37;3.07;;;;;;;;;;5114435;28;20221;-90
2024/01/12 07:49:50;;;;;;;7.23;3.63;;;;;;;;;;5114096;28;20203;-91
2024/01/12 07:52:17;;;;;;;4.77;2.70;;;;;;;;;;5114032;28;20668;-89
2024/01/12 07:54:44;;;;;;;6.63;3.90;;;;;;;;;;5113739;28;20230;-90
2024/01/12 07:57:12;;;;;;;5.97;3.60;;;;;;;;;;5114306;28;20223;-89
2024/01/12 07:59:39;;;;;;;6.43;3.90;;;;;;;;;;5114483;28;20234;-91
2024/01/12 08:02:07;;;;;;;6.97;3.20;;;;;;;;;;5113836;28;20433;-89
2024/01/12 08:04:34;;;;;;;6.43;3.83;;;;;;;;;;5113292;28;20259;-90
2024/01/12 08:07:03;;;;;;;6.20;3.43;;;;;;;;;;5113624;28;20231;-89
2024/01/12 08:09:30;;;;;;;6.60;3.27;;;;;;;;;;5113936;28;20206;-90
2024/01/12 08:11:58;;;;;;;8.87;3.20;;;;;;;;;;5114607;28;20280;-90
2024/01/12 08:14:25;;;;;;;9.00;3.50;;;;;;;;;;5118122;28;20195;-90
2024/01/12 08:16:53;;;;;;;6.80;3.10;;;;;;;;;;5117867;28;20675;-90
2024/01/12 08:19:21;;;;;;;6.63;3.80;;;;;;;;;;5117341;28;20292;-89
2024/01/12 08:21:48;;;;;;;6.67;3.20;;;;;;;;;;5116885;28;20203;-91
2024/01/12 08:24:17;;;;;;;9.10;3.90;;;;;;;;;;5117410;28;20653;-90
2024/01/12 08:26:45;;;;;;;8.57;4.03;;;;;;;;;;5117089;28;20200;-89
2024/01/12 08:29:12;;;;;;;5.60;3.80;;;;;;;;;;5117606;28;20193;-90
2024/01/12 08:31:40;;;;;;;5.10;3.00;;;;;;;;;;5117105;28;20209;-90
2024/01/12 08:34:07;;;;;;;5.57;3.40;;;;;;;;;;5117230;28;20194;-89
2024/01/12 08:36:34;;;;;;;5.50;3.27;;;;;;;;;;5107256;28;20622;-90
2024/01/12 08:39:01;;;;;;;5.20;3.30;;;;;;;;;;5096978;28;20209;-89
2024/01/12 08:41:30;;;;;;;6.03;4.27;;;;;;;;;;5096700;28;20222;-90
2024/01/12 08:43:58;;;;;;;7.77;3.47;;;;;;;;;;5096344;28;20229;-88
2024/01/12 08:46:25;;;;;;;8.50;3.60;;;;;;;;;;5096597;28;20197;-89
2024/01/12 08:48:54;;;;;;;9.20;3.03;;;;;;;;;;5096469;28;20221;-88
2024/01/12 08:51:23;;;;;;;4.67;2.80;;;;;;;;;;5095789;28;20200;-89
2024/01/12 08:53:50;;;;;;;5.97;2.90;;;;;;;;;;5095954;28;20202;-88
2024/01/12 08:56:17;;;;;;;9.97;3.43;;;;;;;;;;5095952;28;20257;-89
2024/01/12 08:58:46;;;;;;;5.90;3.10;;;;;;;;;;5096352;28;20218;-89
2024/01/12 09:01:14;;;;;;;6.83;3.40;;;;;;;;;;5096285;28;20223;-87
2024/01/12 09:03:41;;;;;;;5.83;3.10;;;;;;;;;;5095429;28;20239;-82
2024/01/12 09:06:10;;;;;;;7.17;2.93;;;;;;;;;;5095488;28;20232;-89
2024/01/12 09:08:37;;;;;;;7.40;3.63;;;;;;;;;;5096052;28;20213;-90
2024/01/12 09:11:04;;;;;;;5.63;3.33;;;;;;;;;;5096211;28;20195;-90
2024/01/12 09:13:31;;;;;;;6.27;3.30;;;;;;;;;;5095404;28;20260;-89
2024/01/12 09:16:00;;;;;;;11.00;3.23;;;;;;;;;;5095532;28;20233;-89
2024/01/12 09:18:27;;;;;;;6.60;3.90;;;;;;;;;;5095667;28;20919;-89
2024/01/12 09:20:55;;;;;;;8.57;3.40;;;;;;;;;;5095909;28;20205;-88
2024/01/12 09:23:22;;;;;;;9.57;3.20;;;;;;;;;;5095306;28;20195;-87
2024/01/12 09:25:52;;;;;;;6.67;3.40;;;;;;;;;;5095495;28;20230;-88
2024/01/12 09:28:19;;;;;;;8.50;3.50;;;;;;;;;;5095464;28;20206;-89
2024/01/12 09:30:47;;;;;;;6.77;3.70;;;;;;;;;;5095607;28;20206;-90
2024/01/12 09:33:15;;;;;;;7.83;3.70;;;;;;;;;;5095443;28;20208;-90
2024/01/12 09:35:43;;;;;;;6.93;4.20;;;;;;;;;;5095818;28;20228;-91
2024/01/12 09:38:10;;;;;;;9.60;4.07;;;;;;;;;;5095627;28;20211;-88
2024/01/12 09:40:37;;;;;;;7.60;3.53;;;;;;;;;;5095410;28;20201;-88
2024/01/12 09:43:10;;;;;;;7.77;3.20;;;;;;;;;;5094099;28;20210;-90
2024/01/12 09:45:38;;;;;;;6.47;3.30;;;;;;;;;;5092894;28;20266;-89
2024/01/12 09:48:05;;;;;;;9.03;3.30;;;;;;;;;;5093876;28;20295;-90
2024/01/12 09:50:34;;;;;;;5.43;3.27;;;;;;;;;;5094223;28;20209;-89
2024/01/12 09:53:01;;;;;;;6.87;3.77;;;;;;;;;;4759174;28;10000572;-90
2024/01/12 09:55:28;;;;;;;8.70;3.33;;;;;;;;;;5113265;28;20199;-89
2024/01/12 09:57:56;;;;;;;7.00;3.43;;;;;;;;;;5113892;28;20291;-89
2024/01/12 10:00:26;;;;;;;8.53;3.83;;;;;;;;;;5113815;28;20612;-87
2024/01/12 10:02:55;;;;;;;6.47;3.33;;;;;;;;;;5113305;28;20287;-92
2024/01/12 10:05:25;;;;;;;5.80;2.53;;;;;;;;;;5113598;28;20256;-89
2024/01/12 10:07:53;;;;;;;8.40;3.30;;;;;;;;;;5112833;28;20205;-89
2024/01/12 10:10:21;;;;;;;5.40;2.90;;;;;;;;;;5113110;28;20236;-89
2024/01/12 10:12:49;;;;;;;7.33;3.00;;;;;;;;;;5112761;28;20321;-86
2024/01/12 10:15:17;;;;;;;5.23;2.60;;;;;;;;;;5113044;28;20285;-89
2024/01/12 10:17:44;;;;;;;8.23;2.80;;;;;;;;;;5112546;28;20705;-88
2024/01/12 10:20:11;;;;;;;10.40;4.13;;;;;;;;;;5112299;28;20282;-88
2024/01/12 10:22:39;;;;;;;13.20;5.47;;;;;;;;;;5112762;28;20193;-87
2024/01/12 10:25:08;;;;;;;15.37;5.37;;;;;;;;;;5113315;28;20646;-90
2024/01/12 10:27:36;;;;;;;13.33;5.33;;;;;;;;;;5113063;28;20250;-89
2024/01/12 10:30:03;;;;;;;21.80;7.97;;;;;;;;;;5112864;28;20225;-90
2024/01/12 10:32:30;;;;;;;11.80;5.17;;;;;;;;;;5112087;28;20202;-89
2024/01/12 10:34:58;;;;;;;22.63;8.63;;;;;;;;;;5112611;28;20206;-89
2024/01/12 10:37:26;;;;;;;14.37;6.07;;;;;;;;;;5113537;28;20291;-89
2024/01/12 10:39:55;;;;;;;10.83;5.43;;;;;;;;;;5112639;28;20247;-89
2024/01/12 10:42:25;;;;;;;17.93;9.67;;;;;;;;;;5112770;28;20198;-88
2024/01/12 10:44:53;;;;;;;10.70;5.77;;;;;;;;;;5112920;28;20307;-90
2024/01/12 10:47:22;;;;;;;13.10;5.67;;;;;;;;;;5112850;28;20538;-90
2024/01/12 10:49:50;;;;;;;15.30;6.13;;;;;;;;;;5114587;28;20674;-88
2024/01/12 10:52:22;;;;;;;15.17;6.70;;;;;;;;;;5114367;28;20192;-90
2024/01/12 10:54:52;;;;;;;16.37;7.13;;;;;;;;;;5113875;28;20703;-90
2024/01/12 10:57:19;;;;;;;9.10;5.00;;;;;;;;;;5114293;28;20277;-89
2024/01/12 10:59:50;;;;;;;12.80;5.50;;;;;;;;;;5114564;28;20253;-89
2024/01/12 11:02:18;;;;;;;8.73;4.40;;;;;;;;;;5113837;28;20234;-88
2024/01/12 11:04:46;;;;;;;14.47;5.77;;;;;;;;;;5116323;27;20303;-89
2024/01/12 11:07:14;;;;;;;16.07;7.10;;;;;;;;;;5114506;28;20562;-88
2024/01/12 11:09:41;;;;;;;11.03;5.37;;;;;;;;;;5114071;28;20193;-89
2024/01/12 11:12:09;;;;;;;12.43;6.50;;;;;;;;;;5114014;28;20260;-89
2024/01/12 11:14:37;;;;;;;10.33;4.30;;;;;;;;;;5113308;28;20247;-87
2024/01/12 11:17:07;;;;;;;6.43;3.50;;;;;;;;;;5114123;28;20194;-88
2024/01/12 11:19:35;;;;;;;14.57;7.60;;;;;;;;;;5113137;28;20198;-87
2024/01/12 11:22:07;;;;;;;25.90;16.87;;;;;;;;;;5112762;28;20672;-88
2024/01/12 11:24:35;;;;;;;26.33;15.33;;;;;;;;;;5113663;28;20229;-88
2024/01/12 11:27:03;;;;;;;23.23;17.97;;;;;;;;;;5113511;28;20232;-88
2024/01/12 11:29:31;;;;;;;20.67;13.90;;;;;;;;;;5113367;28;20198;-88
2024/01/12 11:32:02;;;;;;;21.77;12.90;;;;;;;;;;5113468;28;20207;-86
2024/01/12 11:34:33;;;;;;;16.67;6.50;;;;;;;;;;5108932;28;20206;-87
2024/01/12 11:37:07;;;;;;;8.17;3.73;;;;;;;;;;5106042;28;20215;-87
2024/01/12 11:39:38;;;;;;;14.40;8.60;;;;;;;;;;5116316;28;20220;-87
2024/01/12 11:42:06;;;;;;;11.43;5.63;;;;;;;;;;5113840;28;20202;-85
2024/01/12 11:44:34;;;;;;;10.17;7.40;;;;;;;;;;5123258;28;20571;-87
2024/01/12 11:47:01;;;;;;;25.73;18.40;;;;;;;;;;5121583;27;20236;-85
2024/01/12 11:49:29;;;;;;;51.03;32.80;;;;;;;;;;5118440;27;20278;-86
2024/01/12 11:52:04;;;;;;;322.40;141.53;;;;;;;;;;5117680;28;20239;-84
2024/01/12 11:54:31;;;;;;;258.93;110.60;;;;;;;;;;5120930;27;20192;-86
2024/01/12 11:57:01;;;;;;;50.73;26.63;;;;;;;;;;5126278;27;20212;-87
2024/01/12 11:59:29;;;;;;;26.47;14.10;;;;;;;;;;5131129;27;20289;-87
2024/01/12 12:01:56;;;;;;;52.97;24.27;;;;;;;;;;5123151;27;20605;-88
2024/01/12 12:04:23;;;;;;;14.63;8.53;;;;;;;;;;5122468;27;20285;-87
2024/01/12 12:06:52;;;;;;;88.83;42.37;;;;;;;;;;5122606;27;20231;-87
2024/01/12 12:09:21;;;;;;;79.73;42.57;;;;;;;;;;5123983;27;20206;-87
2024/01/12 12:11:48;;;;;;;37.37;26.63;;;;;;;;;;5118343;27;20315;-86
2024/01/12 12:14:15;;;;;;;7.60;4.73;;;;;;;;;;5125375;27;20192;-86
2024/01/12 12:16:43;;;;;;;5.60;3.83;;;;;;;;;;5118708;27;20229;-86
2024/01/12 12:19:11;;;;;;;8.27;6.10;;;;;;;;;;5120233;27;20242;-87
2024/01/12 12:21:38;;;;;;;10.97;5.77;;;;;;;;;;5119177;27;20254;-86
2024/01/12 12:24:06;;;;;;;7.07;3.70;;;;;;;;;;5120501;27;20578;-86
2024/01/12 12:26:35;;;;;;;14.47;7.70;;;;;;;;;;5134828;27;20233;-87
2024/01/12 12:29:03;;;;;;;16.47;7.90;;;;;;;;;;5122714;27;20216;-87
2024/01/12 12:31:31;;;;;;;15.07;6.83;;;;;;;;;;5123060;27;20205;-88
2024/01/12 12:33:59;;;;;;;17.00;8.43;;;;;;;;;;5124846;27;20242;-87
2024/01/12 12:36:26;;;;;;;10.37;5.60;;;;;;;;;;5122657;27;20201;-86
2024/01/12 12:38:53;;;;;;;11.03;7.07;;;;;;;;;;5116307;28;20338;-87
2024/01/12 12:41:20;;;;;;;9.10;6.70;;;;;;;;;;5115640;28;20192;-85
2024/01/12 12:43:50;;;;;;;13.23;6.10;;;;;;;;;;5115636;28;20253;-85
2024/01/12 12:46:17;;;;;;;10.37;7.33;;;;;;;;;;5114611;28;20632;-85
2024/01/12 12:48:45;;;;;;;15.60;12.70;;;;;;;;;;5113502;28;20742;-89
2024/01/12 12:51:13;;;;;;;13.23;9.13;;;;;;;;;;5113673;28;20601;-87
2024/01/12 12:53:40;;;;;;;15.10;8.35;;;;;;;;;;4759666;28;10000857;-87
2024/01/12 12:56:07;;;;;;;18.57;13.23;;;;;;;;;;5093098;28;20284;-86
2024/01/12 12:58:35;;;;;;;25.90;19.73;;;;;;;;;;5092083;28;20198;-86
2024/01/12 13:01:03;;;;;;;22.77;13.47;;;;;;;;;;5092989;28;20203;-87
2024/01/12 13:03:31;;;;;;;27.13;17.77;;;;;;;;;;5092454;28;20698;-87
2024/01/12 13:05:58;;;;;;;68.33;36.97;;;;;;;;;;5093128;28;20587;-87
2024/01/12 13:08:26;;;;;;;81.60;39.13;;;;;;;;;;5093312;28;20281;-87
2024/01/12 13:10:54;;;;;;;171.17;76.07;;;;;;;;;;5092284;28;20195;-87
2024/01/12 13:13:22;;;;;;;120.40;56.80;;;;;;;;;;5093072;28;20238;-88
2024/01/12 13:15:49;;;;;;;66.27;32.93;;;;;;;;;;5093452;28;20222;-87
2024/01/12 13:18:19;;;;;;;104.20;51.53;;;;;;;;;;5093346;28;20226;-89
2024/01/12 13:20:47;;;;;;;71.03;36.63;;;;;;;;;;5093430;28;20205;-87
2024/01/12 13:23:14;;;;;;;17.03;11.07;;;;;;;;;;5095040;27;20202;-89
2024/01/12 13:25:41;;;;;;;150.13;61.60;;;;;;;;;;5113600;28;20310;-86
2024/01/12 13:28:09;;;;;;;15.67;7.80;;;;;;;;;;5113461;28;20714;-87
2024/01/12 13:30:36;;;;;;;62.07;26.37;;;;;;;;;;5125739;27;20736;-87
2024/01/12 13:33:04;;;;;;;28.60;12.93;;;;;;;;;;5134163;27;20193;-88
2024/01/12 13:35:33;;;;;;;44.40;21.60;;;;;;;;;;5116920;27;20204;-87
2024/01/12 13:38:00;;;;;;;29.10;17.43;;;;;;;;;;5113276;27;20243;-89
2024/01/12 13:40:27;;;;;;;17.57;10.27;;;;;;;;;;5113030;28;20229;-87
2024/01/12 13:42:55;;;;;;;12.77;8.77;;;;;;;;;;5113481;28;20240;-88
2024/01/12 13:45:22;;;;;;;13.93;7.40;;;;;;;;;;5113546;28;20260;-88
2024/01/12 13:47:49;;;;;;;8.03;5.57;;;;;;;;;;5112921;28;20247;-89
2024/01/12 13:50:16;;;;;;;9.87;5.87;;;;;;;;;;5115450;27;20193;-88
2024/01/12 13:52:45;;;;;;;17.33;11.60;;;;;;;;;;5112105;28;20773;-85
2024/01/12 13:55:12;;;;;;;11.53;7.27;;;;;;;;;;5096273;28;20222;-87
2024/01/12 13:57:40;;;;;;;6.90;3.90;;;;;;;;;;5091998;28;20200;-87
2024/01/12 14:00:08;;;;;;;8.53;4.37;;;;;;;;;;5092272;28;20205;-88
2024/01/12 14:02:35;;;;;;;7.30;4.60;;;;;;;;;;5113277;28;20213;-87
2024/01/12 14:05:02;;;;;;;13.97;7.80;;;;;;;;;;5113652;28;20243;-87
2024/01/12 14:07:30;;;;;;;15.10;7.07;;;;;;;;;;5114550;28;20212;-87
2024/01/12 14:09:58;;;;;;;8.47;4.60;;;;;;;;;;5114060;28;20562;-88
2024/01/12 14:12:27;;;;;;;9.17;4.37;;;;;;;;;;5114424;28;20218;-87
2024/01/12 14:14:54;;;;;;;12.50;4.67;;;;;;;;;;5114909;28;20222;-88
2024/01/12 14:17:21;;;;;;;9.13;4.47;;;;;;;;;;5119879;27;20801;-88
2024/01/12 14:19:52;;;;;;;8.13;3.83;;;;;;;;;;5112005;27;20283;-86
2024/01/12 14:22:19;;;;;;;5.97;3.70;;;;;;;;;;5118277;27;20247;-88
2024/01/12 14:24:48;;;;;;;9.30;4.17;;;;;;;;;;5116090;27;20229;-87
2024/01/12 14:27:17;;;;;;;7.73;4.20;;;;;;;;;;5116395;27;20215;-86
2024/01/12 14:29:44;;;;;;;11.10;4.00;;;;;;;;;;5114787;27;20208;-87
2024/01/12 14:32:11;;;;;;;9.00;4.30;;;;;;;;;;5114495;27;20705;-86
2024/01/12 14:34:39;;;;;;;11.03;5.03;;;;;;;;;;5113802;28;20212;-87